Seiyoh101 — JD3331 — position and weather

sailwx.info

Track history (hours):
 
Tides and Currents Weather Stations Pressure Air Temp Water Temp Dewpoint Dewpoint Depression Visibility Wind Speed Wind Dir Waves Ship Positions

Seiyoh101

Last reported at 2018-Apr-23 07:45 UTC. Time now 2018-Apr-25 23:49 UTC.
Position N 34°32' E 134°44'.

Length 60 m.

Type: Tanker. MMSI: 431003382.

Date/timePositionNaut miles runAvg speedWind from/ knotsBaromVisibWave heightAir tempDewpointWater temp
2018-Apr-23 07:45N 34°32' E 134°44'412.2
2018-Apr-23 07:27N 34°34' E 134°48'612.5
2018-Apr-23 06:58N 34°36' E 134°55'611.9
2018-Apr-23 06:30N 34°37' E 135°01'5 9.7
2018-Apr-23 06:00N 34°37' E 135°07'2 4.2
2018-Apr-23 05:28N 34°39' E 135°09'0 0.0
2018-Apr-23 04:58N 34°39' E 135°09'0 0.0
2018-Apr-23 04:28N 34°39' E 135°09'0 0.0
2018-Apr-23 03:58N 34°39' E 135°09'0 0.0
2018-Apr-23 03:28N 34°39' E 135°09'0 0.0
2018-Apr-23 02:58N 34°39' E 135°09'0 0.0
2018-Apr-23 02:28N 34°39' E 135°09'0 0.0
2018-Apr-23 01:58N 34°39' E 135°09'3 7.3
2018-Apr-23 01:30N 34°37' E 135°13'5 9.2
2018-Apr-23 01:00N 34°40' E 135°18'0 0.4
2018-Apr-23 00:29N 34°40' E 135°18'0 0.0
2018-Apr-22 23:59N 34°40' E 135°18'0 0.1
2018-Apr-22 23:29N 34°40' E 135°18'0 0.1
2018-Apr-22 22:59N 34°40' E 135°18'0 0.1
2018-Apr-22 22:28N 34°40' E 135°18'0 0.0
2018-Apr-22 22:00N 34°40' E 135°18'0 0.5
2018-Apr-22 21:30N 34°40' E 135°18'2 4.7
2018-Apr-22 21:00N 34°38' E 135°16'4 8.5
2018-Apr-22 20:30N 34°39' E 135°11'1 1.9
2018-Apr-22 19:59N 34°40' E 135°11'0 0.0
2018-Apr-22 19:29N 34°40' E 135°11'0 0.1
2018-Apr-22 18:59N 34°40' E 135°11'0 0.1
2018-Apr-22 18:29N 34°40' E 135°11'0 0.0
2018-Apr-22 17:59N 34°40' E 135°11'0 0.0
2018-Apr-22 17:29N 34°40' E 135°11'0 0.0
2018-Apr-22 16:59N 34°40' E 135°11'0 0.0
2018-Apr-22 16:29N 34°40' E 135°11'0 0.0
2018-Apr-22 15:59N 34°40' E 135°11'0 0.0
2018-Apr-22 15:29N 34°40' E 135°11'0 0.0
2018-Apr-22 14:59N 34°40' E 135°11'0 0.0
2018-Apr-22 14:29N 34°40' E 135°11'0 0.0
2018-Apr-22 13:59N 34°40' E 135°11'0 0.0
2018-Apr-22 13:29N 34°40' E 135°11'0 0.0
2018-Apr-22 12:59N 34°40' E 135°11'0 0.0
2018-Apr-22 12:29N 34°40' E 135°11'0 0.0
2018-Apr-22 11:59N 34°40' E 135°11'0 0.0
2018-Apr-22 11:29N 34°40' E 135°11'0 0.0
2018-Apr-22 10:59N 34°40' E 135°11'0 0.0
2018-Apr-22 10:29N 34°40' E 135°11'0 0.0
2018-Apr-22 09:59N 34°40' E 135°11'0 0.0
2018-Apr-22 09:29N 34°40' E 135°11'0 0.0
2018-Apr-22 08:59N 34°40' E 135°11'0 0.0
2018-Apr-22 08:29N 34°40' E 135°11'0 0.0
2018-Apr-22 07:59N 34°40' E 135°11'0 0.0
2018-Apr-22 07:29N 34°40' E 135°11'0 0.0
2018-Apr-22 06:59N 34°40' E 135°11'0 0.0
2018-Apr-22 06:29N 34°40' E 135°11'0 0.0
2018-Apr-22 05:59N 34°40' E 135°11'0 0.0
2018-Apr-22 05:29N 34°40' E 135°11'0 0.0
2018-Apr-22 04:59N 34°40' E 135°11'0 0.1
2018-Apr-22 04:29N 34°40' E 135°11'3 6.3
2018-Apr-22 03:59N 34°37' E 135°10'0 0.0
2018-Apr-22 03:29N 34°37' E 135°10'0 0.0
2018-Apr-22 02:59N 34°37' E 135°10'0 0.1
2018-Apr-22 02:29N 34°37' E 135°10'3 6.2
2018-Apr-22 02:00N 34°36' E 135°13'510.8
2018-Apr-22 01:30N 34°35' E 135°19'5 8.6
2018-Apr-22 00:58N 34°34' E 135°25'0 0.0
2018-Apr-22 00:28N 34°34' E 135°25'0 0.0
2018-Apr-21 23:58N 34°34' E 135°25'0 0.0
2018-Apr-21 23:28N 34°34' E 135°25'0 0.0
2018-Apr-21 22:58N 34°34' E 135°25'0 0.0
2018-Apr-21 22:28N 34°34' E 135°25'0 0.0
2018-Apr-21 21:58N 34°34' E 135°25'0 0.2
2018-Apr-21 21:28N 34°34' E 135°25'3 6.4
2018-Apr-21 21:00N 34°33' E 135°21'2 3.8
2018-Apr-21 20:29N 34°32' E 135°19'0 0.0
2018-Apr-21 19:59N 34°32' E 135°19'0 0.0
2018-Apr-21 19:29N 34°32' E 135°19'0 0.0
2018-Apr-21 18:59N 34°32' E 135°19'0 0.0
2018-Apr-21 18:29N 34°32' E 135°19'0 0.0
2018-Apr-21 17:59N 34°32' E 135°19'0 0.0
2018-Apr-21 17:29N 34°32' E 135°19'0 0.0
2018-Apr-21 16:59N 34°32' E 135°19'0 0.0
2018-Apr-21 16:29N 34°32' E 135°19'0 0.0
2018-Apr-21 15:59N 34°32' E 135°19'0 0.0
2018-Apr-21 15:29N 34°32' E 135°19'0 0.1
2018-Apr-21 15:00N 34°32' E 135°19'5 9.9
2018-Apr-21 14:30N 34°29' E 135°14'611.3
2018-Apr-21 14:00N 34°25' E 135°09'612.0
2018-Apr-21 13:30N 34°20' E 135°05'612.0
2018-Apr-21 13:00N 34°15' E 135°03'611.7
2018-Apr-21 12:29N 34°09' E 135°02'611.7
2018-Apr-21 12:00N 34°03' E 135°02'611.7
2018-Apr-21 11:27N 33°57' E 135°01'192 9.6
2018-Apr-20 15:31N 34°34' E 138°50'012.5
2018-Apr-20 15:30N 34°34' E 138°50'1210.4
2018-Apr-20 14:23N 34°40' E 139°02'810.4
2018-Apr-20 13:37N 34°47' E 139°08'111.1
2018-Apr-20 13:29N 34°48' E 139°09'2610.3
2018-Apr-20 10:59N 35°04' E 139°34'511.1
2018-Apr-20 10:30N 35°06' E 139°40'610.9
2018-Apr-20 10:00N 35°10' E 139°44'510.3
2018-Apr-20 09:30N 35°15' E 139°46'510.0
2018-Apr-20 08:59N 35°19' E 139°43'5 9.7
2018-Apr-20 08:28N 35°24' E 139°43'510.2
2018-Apr-20 07:59N 35°27' E 139°48'1310.9
2018-Apr-20 06:47N 35°33' E 140°02'3 9.8
2018-Apr-20 06:30N 35°33' E 140°05'0 0.2
2018-Apr-20 05:50N 35°32' E 140°05'0 0.0
2018-Apr-20 05:20N 35°32' E 140°05'0 0.0
2018-Apr-20 04:16N 35°32' E 140°05'0 0.0
2018-Apr-20 03:59N 35°32' E 140°05'0 0.0
2018-Apr-20 03:29N 35°32' E 140°05'0 0.0
2018-Apr-20 03:00N 35°32' E 140°05'0 0.0
2018-Apr-20 02:15N 35°32' E 140°05'0 0.2
2018-Apr-20 01:57N 35°32' E 140°05'0 0.1
2018-Apr-20 01:27N 35°32' E 140°05'0 0.1
2018-Apr-20 00:57N 35°32' E 140°05'0 0.8
2018-Apr-20 00:30N 35°33' E 140°05'3 6.2
2018-Apr-20 00:00N 35°33' E 140°01'4 7.4
2018-Apr-19 23:30N 35°31' E 139°58'4 7.6
2018-Apr-19 22:58N 35°29' E 139°53'3 7.3
2018-Apr-19 22:30N 35°27' E 139°50'510.0
2018-Apr-19 21:59N 35°23' E 139°46'510.8
2018-Apr-19 21:30N 35°18' E 139°45'611.4
2018-Apr-19 21:00N 35°12' E 139°47'611.3
2018-Apr-19 20:30N 35°07' E 139°45'611.4
2018-Apr-19 19:57N 35°04' E 139°38'612.4
2018-Apr-19 19:27N 34°60' E 139°33'612.7
2018-Apr-19 19:00N 34°56' E 139°27'13210.9
2018-Apr-19 06:58N 34°45' E 136°47'511.2
2018-Apr-19 06:30N 34°49' E 136°45'510.9
2018-Apr-19 06:00N 34°54' E 136°42'4 7.2
2018-Apr-19 05:29N 34°57' E 136°38'0 0.2
2018-Apr-19 04:59N 34°57' E 136°38'0 0.0
2018-Apr-19 04:25N 34°57' E 136°38'0 0.0
2018-Apr-19 04:00N 34°57' E 136°38'0 0.0
2018-Apr-19 03:30N 34°57' E 136°38'0 0.0
2018-Apr-19 03:00N 34°57' E 136°38'1 1.7
2018-Apr-19 02:30N 34°57' E 136°39'0 0.4
2018-Apr-19 01:58N 34°57' E 136°39'0 0.1
2018-Apr-19 01:28N 34°57' E 136°39'0 0.0
2018-Apr-19 00:58N 34°57' E 136°39'1 1.2
2018-Apr-19 00:30N 34°57' E 136°40'5 9.7
2018-Apr-19 00:00N 34°53' E 136°43'510.3
2018-Apr-18 23:30N 34°48' E 136°46'510.3
2018-Apr-18 23:00N 34°44' E 136°50'9810.3
2018-Apr-18 13:26N 34°35' E 138°49'510.8
2018-Apr-18 12:59N 34°36' E 138°55'810.5
2018-Apr-18 12:14N 34°40' E 139°03'310.5
2018-Apr-18 11:54N 34°42' E 139°06'3210.3
2018-Apr-18 08:51N 35°03' E 139°34'411.4
2018-Apr-18 08:29N 35°05' E 139°39'611.5
2018-Apr-18 08:00N 35°09' E 139°44'510.5
2018-Apr-18 07:30N 35°14' E 139°46'5 9.5
2018-Apr-18 07:00N 35°18' E 139°44'510.1
2018-Apr-18 06:30N 35°23' E 139°42'510.5
2018-Apr-18 06:00N 35°27' E 139°47'510.7
2018-Apr-18 05:30N 35°30' E 139°52'610.9
2018-Apr-18 04:58N 35°32' E 139°59'4 7.2
2018-Apr-18 04:26N 35°32' E 140°04'0 0.0
2018-Apr-18 03:56N 35°32' E 140°04'0 0.0
2018-Apr-18 03:26N 35°32' E 140°04'0 0.0
2018-Apr-18 02:53N 35°32' E 140°04'0 0.0
2018-Apr-18 02:29N 35°32' E 140°04'1 0.2
2018-Apr-17 23:21N 35°32' E 140°03'3 9.0
2018-Apr-17 23:00N 35°35' E 140°04'2 4.0
2018-Apr-17 22:28N 35°36' E 140°06'0 0.0
2018-Apr-17 21:59N 35°36' E 140°06'0 0.0
2018-Apr-17 21:28N 35°36' E 140°06'0 0.0
2018-Apr-17 20:58N 35°36' E 140°06'0 0.0
2018-Apr-17 20:29N 35°36' E 140°06'0 0.0
2018-Apr-17 19:58N 35°36' E 140°06'0 0.0
2018-Apr-17 19:28N 35°36' E 140°06'0 0.0
2018-Apr-17 18:59N 35°36' E 140°06'0 0.0
2018-Apr-17 18:28N 35°36' E 140°06'0 0.0
2018-Apr-17 17:59N 35°36' E 140°06'0 0.0
2018-Apr-17 17:30N 35°36' E 140°06'0 0.0
2018-Apr-17 16:59N 35°36' E 140°06'0 0.0
2018-Apr-17 16:29N 35°36' E 140°06'0 0.0
2018-Apr-17 16:01N 35°36' E 140°06'0 0.0
2018-Apr-17 15:30N 35°36' E 140°06'0 0.0
2018-Apr-17 14:58N 35°36' E 140°06'0 0.0
2018-Apr-17 14:27N 35°36' E 140°06'0 0.0
2018-Apr-17 14:00N 35°36' E 140°06'0 0.0
2018-Apr-17 13:30N 35°36' E 140°06'0 0.0
2018-Apr-17 13:00N 35°36' E 140°06'0 0.0
2018-Apr-17 12:30N 35°36' E 140°06'0 0.0
2018-Apr-17 12:00N 35°36' E 140°06'0 0.0
2018-Apr-17 11:30N 35°36' E 140°06'0 0.0
2018-Apr-17 11:00N 35°36' E 140°06'0 0.0
2018-Apr-17 10:30N 35°36' E 140°06'0 0.0
2018-Apr-17 10:00N 35°36' E 140°06'0 0.0
2018-Apr-17 09:30N 35°36' E 140°06'0 0.0
2018-Apr-17 09:00N 35°36' E 140°06'0 0.0
2018-Apr-17 08:30N 35°36' E 140°06'0 0.0
2018-Apr-17 08:00N 35°36' E 140°06'0 0.0
2018-Apr-17 07:30N 35°36' E 140°06'0 0.0
2018-Apr-17 07:00N 35°36' E 140°06'2 4.1
2018-Apr-17 06:30N 35°35' E 140°04'611.7
2018-Apr-17 05:57N 35°32' E 139°57'611.3
2018-Apr-17 05:27N 35°28' E 139°52'511.5
2018-Apr-17 04:59N 35°23' E 139°51'2 3.3
2018-Apr-17 04:22N 35°22' E 139°53'0 0.0
2018-Apr-17 03:55N 35°22' E 139°53'0 0.0
2018-Apr-17 03:28N 35°22' E 139°53'0 0.0
2018-Apr-17 02:55N 35°22' E 139°53'0 0.0
2018-Apr-17 02:28N 35°22' E 139°53'0 0.0
2018-Apr-17 01:55N 35°22' E 139°53'0 0.0
2018-Apr-17 01:28N 35°22' E 139°53'0 0.0
2018-Apr-17 00:55N 35°22' E 139°53'0 0.0
2018-Apr-17 00:25N 35°22' E 139°53'0 0.0
2018-Apr-16 23:58N 35°22' E 139°53'0 0.2
2018-Apr-16 23:27N 35°22' E 139°53'3 6.0
2018-Apr-16 22:59N 35°23' E 139°50'3 5.7
2018-Apr-16 22:29N 35°24' E 139°47'4 7.3
2018-Apr-16 21:59N 35°21' E 139°45'3 7.5
2018-Apr-16 21:30N 35°18' E 139°45'5 9.4
2018-Apr-16 21:01N 35°13' E 139°47'5 9.6
2018-Apr-16 20:30N 35°08' E 139°45'5 9.3
2018-Apr-16 20:00N 35°05' E 139°41'5 9.9
2018-Apr-16 19:30N 35°02' E 139°36'245 8.9
2018-Apr-15 16:02N 34°05' E 134°48'163 4.4
2018-Apr-14 03:17N 33°16' E 131°41'0 0.2
2018-Apr-14 02:59N 33°16' E 131°41'2 1.0
2018-Apr-14 01:26N 33°18' E 131°41'1 2.2
2018-Apr-14 00:58N 33°18' E 131°41'2 4.0
2018-Apr-14 00:25N 33°19' E 131°44'9 9.8
2018-Apr-13 23:32N 33°25' E 131°52'110.9
2018-Apr-13 23:28N 33°25' E 131°52'4911.4
2018-Apr-13 19:09N 33°56' E 132°39'311.9
2018-Apr-13 18:56N 33°57' E 132°42'10311.2
2018-Apr-13 09:43N 34°31' E 134°39'412.8
2018-Apr-13 09:22N 34°33' E 134°44'613.2
2018-Apr-13 08:56N 34°35' E 134°51'613.9
2018-Apr-13 08:30N 34°37' E 134°57'612.4
2018-Apr-13 08:00N 34°36' E 135°05'  
Track history (hours):
 
Tides and Currents Weather Stations Pressure Air Temp Water Temp Dewpoint Dewpoint Depression Visibility Wind Speed Wind Dir Waves Ship Positions

Seiyoh101

Last reported at 2018-Apr-23 07:45 UTC. Time now 2018-Apr-25 23:49 UTC.
Position N 34°32' E 134°44'.

Length 60 m.

Type: Tanker. MMSI: 431003382.

Date/timePositionNaut miles runAvg speedWind from/ knotsBaromVisibWave heightAir tempDewpointWater temp
2018-Apr-23 07:45N 34°32' E 134°44'412.2
2018-Apr-23 07:27N 34°34' E 134°48'612.5
2018-Apr-23 06:58N 34°36' E 134°55'611.9
2018-Apr-23 06:30N 34°37' E 135°01'5 9.7
2018-Apr-23 06:00N 34°37' E 135°07'2 4.2
2018-Apr-23 05:28N 34°39' E 135°09'0 0.0
2018-Apr-23 04:58N 34°39' E 135°09'0 0.0
2018-Apr-23 04:28N 34°39' E 135°09'0 0.0
2018-Apr-23 03:58N 34°39' E 135°09'0 0.0
2018-Apr-23 03:28N 34°39' E 135°09'0 0.0
2018-Apr-23 02:58N 34°39' E 135°09'0 0.0
2018-Apr-23 02:28N 34°39' E 135°09'0 0.0
2018-Apr-23 01:58N 34°39' E 135°09'3 7.3
2018-Apr-23 01:30N 34°37' E 135°13'5 9.2
2018-Apr-23 01:00N 34°40' E 135°18'0 0.4
2018-Apr-23 00:29N 34°40' E 135°18'0 0.0
2018-Apr-22 23:59N 34°40' E 135°18'0 0.1
2018-Apr-22 23:29N 34°40' E 135°18'0 0.1
2018-Apr-22 22:59N 34°40' E 135°18'0 0.1
2018-Apr-22 22:28N 34°40' E 135°18'0 0.0
2018-Apr-22 22:00N 34°40' E 135°18'0 0.5
2018-Apr-22 21:30N 34°40' E 135°18'2 4.7
2018-Apr-22 21:00N 34°38' E 135°16'4 8.5
2018-Apr-22 20:30N 34°39' E 135°11'1 1.9
2018-Apr-22 19:59N 34°40' E 135°11'0 0.0
2018-Apr-22 19:29N 34°40' E 135°11'0 0.1
2018-Apr-22 18:59N 34°40' E 135°11'0 0.1
2018-Apr-22 18:29N 34°40' E 135°11'0 0.0
2018-Apr-22 17:59N 34°40' E 135°11'0 0.0
2018-Apr-22 17:29N 34°40' E 135°11'0 0.0
2018-Apr-22 16:59N 34°40' E 135°11'0 0.0
2018-Apr-22 16:29N 34°40' E 135°11'0 0.0
2018-Apr-22 15:59N 34°40' E 135°11'0 0.0
2018-Apr-22 15:29N 34°40' E 135°11'0 0.0
2018-Apr-22 14:59N 34°40' E 135°11'0 0.0
2018-Apr-22 14:29N 34°40' E 135°11'0 0.0
2018-Apr-22 13:59N 34°40' E 135°11'0 0.0
2018-Apr-22 13:29N 34°40' E 135°11'0 0.0
2018-Apr-22 12:59N 34°40' E 135°11'0 0.0
2018-Apr-22 12:29N 34°40' E 135°11'0 0.0
2018-Apr-22 11:59N 34°40' E 135°11'0 0.0
2018-Apr-22 11:29N 34°40' E 135°11'0 0.0
2018-Apr-22 10:59N 34°40' E 135°11'0 0.0
2018-Apr-22 10:29N 34°40' E 135°11'0 0.0
2018-Apr-22 09:59N 34°40' E 135°11'0 0.0
2018-Apr-22 09:29N 34°40' E 135°11'0 0.0
2018-Apr-22 08:59N 34°40' E 135°11'0 0.0
2018-Apr-22 08:29N 34°40' E 135°11'0 0.0
2018-Apr-22 07:59N 34°40' E 135°11'0 0.0
2018-Apr-22 07:29N 34°40' E 135°11'0 0.0
2018-Apr-22 06:59N 34°40' E 135°11'0 0.0
2018-Apr-22 06:29N 34°40' E 135°11'0 0.0
2018-Apr-22 05:59N 34°40' E 135°11'0 0.0
2018-Apr-22 05:29N 34°40' E 135°11'0 0.0
2018-Apr-22 04:59N 34°40' E 135°11'0 0.1
2018-Apr-22 04:29N 34°40' E 135°11'3 6.3
2018-Apr-22 03:59N 34°37' E 135°10'0 0.0
2018-Apr-22 03:29N 34°37' E 135°10'0 0.0
2018-Apr-22 02:59N 34°37' E 135°10'0 0.1
2018-Apr-22 02:29N 34°37' E 135°10'3 6.2
2018-Apr-22 02:00N 34°36' E 135°13'510.8
2018-Apr-22 01:30N 34°35' E 135°19'5 8.6
2018-Apr-22 00:58N 34°34' E 135°25'0 0.0
2018-Apr-22 00:28N 34°34' E 135°25'0 0.0
2018-Apr-21 23:58N 34°34' E 135°25'0 0.0
2018-Apr-21 23:28N 34°34' E 135°25'0 0.0
2018-Apr-21 22:58N 34°34' E 135°25'0 0.0
2018-Apr-21 22:28N 34°34' E 135°25'0 0.0
2018-Apr-21 21:58N 34°34' E 135°25'0 0.2
2018-Apr-21 21:28N 34°34' E 135°25'3 6.4
2018-Apr-21 21:00N 34°33' E 135°21'2 3.8
2018-Apr-21 20:29N 34°32' E 135°19'0 0.0
2018-Apr-21 19:59N 34°32' E 135°19'0 0.0
2018-Apr-21 19:29N 34°32' E 135°19'0 0.0
2018-Apr-21 18:59N 34°32' E 135°19'0 0.0
2018-Apr-21 18:29N 34°32' E 135°19'0 0.0
2018-Apr-21 17:59N 34°32' E 135°19'0 0.0
2018-Apr-21 17:29N 34°32' E 135°19'0 0.0
2018-Apr-21 16:59N 34°32' E 135°19'0 0.0
2018-Apr-21 16:29N 34°32' E 135°19'0 0.0
2018-Apr-21 15:59N 34°32' E 135°19'0 0.0
2018-Apr-21 15:29N 34°32' E 135°19'0 0.1
2018-Apr-21 15:00N 34°32' E 135°19'5 9.9
2018-Apr-21 14:30N 34°29' E 135°14'611.3
2018-Apr-21 14:00N 34°25' E 135°09'612.0
2018-Apr-21 13:30N 34°20' E 135°05'612.0
2018-Apr-21 13:00N 34°15' E 135°03'611.7
2018-Apr-21 12:29N 34°09' E 135°02'611.7
2018-Apr-21 12:00N 34°03' E 135°02'611.7
2018-Apr-21 11:27N 33°57' E 135°01'192 9.6
2018-Apr-20 15:31N 34°34' E 138°50'012.5
2018-Apr-20 15:30N 34°34' E 138°50'1210.4
2018-Apr-20 14:23N 34°40' E 139°02'810.4
2018-Apr-20 13:37N 34°47' E 139°08'111.1
2018-Apr-20 13:29N 34°48' E 139°09'2610.3
2018-Apr-20 10:59N 35°04' E 139°34'511.1
2018-Apr-20 10:30N 35°06' E 139°40'610.9
2018-Apr-20 10:00N 35°10' E 139°44'510.3
2018-Apr-20 09:30N 35°15' E 139°46'510.0
2018-Apr-20 08:59N 35°19' E 139°43'5 9.7
2018-Apr-20 08:28N 35°24' E 139°43'510.2
2018-Apr-20 07:59N 35°27' E 139°48'1310.9
2018-Apr-20 06:47N 35°33' E 140°02'3 9.8
2018-Apr-20 06:30N 35°33' E 140°05'0 0.2
2018-Apr-20 05:50N 35°32' E 140°05'0 0.0
2018-Apr-20 05:20N 35°32' E 140°05'0 0.0
2018-Apr-20 04:16N 35°32' E 140°05'0 0.0
2018-Apr-20 03:59N 35°32' E 140°05'0 0.0
2018-Apr-20 03:29N 35°32' E 140°05'0 0.0
2018-Apr-20 03:00N 35°32' E 140°05'0 0.0
2018-Apr-20 02:15N 35°32' E 140°05'0 0.2
2018-Apr-20 01:57N 35°32' E 140°05'0 0.1
2018-Apr-20 01:27N 35°32' E 140°05'0 0.1
2018-Apr-20 00:57N 35°32' E 140°05'0 0.8
2018-Apr-20 00:30N 35°33' E 140°05'3 6.2
2018-Apr-20 00:00N 35°33' E 140°01'4 7.4
2018-Apr-19 23:30N 35°31' E 139°58'4 7.6
2018-Apr-19 22:58N 35°29' E 139°53'3 7.3
2018-Apr-19 22:30N 35°27' E 139°50'510.0
2018-Apr-19 21:59N 35°23' E 139°46'510.8
2018-Apr-19 21:30N 35°18' E 139°45'611.4
2018-Apr-19 21:00N 35°12' E 139°47'611.3
2018-Apr-19 20:30N 35°07' E 139°45'611.4
2018-Apr-19 19:57N 35°04' E 139°38'612.4
2018-Apr-19 19:27N 34°60' E 139°33'612.7
2018-Apr-19 19:00N 34°56' E 139°27'13210.9
2018-Apr-19 06:58N 34°45' E 136°47'511.2
2018-Apr-19 06:30N 34°49' E 136°45'510.9
2018-Apr-19 06:00N 34°54' E 136°42'4 7.2
2018-Apr-19 05:29N 34°57' E 136°38'0 0.2
2018-Apr-19 04:59N 34°57' E 136°38'0 0.0
2018-Apr-19 04:25N 34°57' E 136°38'0 0.0
2018-Apr-19 04:00N 34°57' E 136°38'0 0.0
2018-Apr-19 03:30N 34°57' E 136°38'0 0.0
2018-Apr-19 03:00N 34°57' E 136°38'1 1.7
2018-Apr-19 02:30N 34°57' E 136°39'0 0.4
2018-Apr-19 01:58N 34°57' E 136°39'0 0.1
2018-Apr-19 01:28N 34°57' E 136°39'0 0.0
2018-Apr-19 00:58N 34°57' E 136°39'1 1.2
2018-Apr-19 00:30N 34°57' E 136°40'5 9.7
2018-Apr-19 00:00N 34°53' E 136°43'510.3
2018-Apr-18 23:30N 34°48' E 136°46'510.3
2018-Apr-18 23:00N 34°44' E 136°50'9810.3
2018-Apr-18 13:26N 34°35' E 138°49'510.8
2018-Apr-18 12:59N 34°36' E 138°55'810.5
2018-Apr-18 12:14N 34°40' E 139°03'310.5
2018-Apr-18 11:54N 34°42' E 139°06'3210.3
2018-Apr-18 08:51N 35°03' E 139°34'411.4
2018-Apr-18 08:29N 35°05' E 139°39'611.5
2018-Apr-18 08:00N 35°09' E 139°44'510.5
2018-Apr-18 07:30N 35°14' E 139°46'5 9.5
2018-Apr-18 07:00N 35°18' E 139°44'510.1
2018-Apr-18 06:30N 35°23' E 139°42'510.5
2018-Apr-18 06:00N 35°27' E 139°47'510.7
2018-Apr-18 05:30N 35°30' E 139°52'610.9
2018-Apr-18 04:58N 35°32' E 139°59'4 7.2
2018-Apr-18 04:26N 35°32' E 140°04'0 0.0
2018-Apr-18 03:56N 35°32' E 140°04'0 0.0
2018-Apr-18 03:26N 35°32' E 140°04'0 0.0
2018-Apr-18 02:53N 35°32' E 140°04'0 0.0
2018-Apr-18 02:29N 35°32' E 140°04'1 0.2
2018-Apr-17 23:21N 35°32' E 140°03'3 9.0
2018-Apr-17 23:00N 35°35' E 140°04'2 4.0
2018-Apr-17 22:28N 35°36' E 140°06'0 0.0
2018-Apr-17 21:59N 35°36' E 140°06'0 0.0
2018-Apr-17 21:28N 35°36' E 140°06'0 0.0
2018-Apr-17 20:58N 35°36' E 140°06'0 0.0
2018-Apr-17 20:29N 35°36' E 140°06'0 0.0
2018-Apr-17 19:58N 35°36' E 140°06'0 0.0
2018-Apr-17 19:28N 35°36' E 140°06'0 0.0
2018-Apr-17 18:59N 35°36' E 140°06'0 0.0
2018-Apr-17 18:28N 35°36' E 140°06'0 0.0
2018-Apr-17 17:59N 35°36' E 140°06'0 0.0
2018-Apr-17 17:30N 35°36' E 140°06'0 0.0
2018-Apr-17 16:59N 35°36' E 140°06'0 0.0
2018-Apr-17 16:29N 35°36' E 140°06'0 0.0
2018-Apr-17 16:01N 35°36' E 140°06'0 0.0
2018-Apr-17 15:30N 35°36' E 140°06'0 0.0
2018-Apr-17 14:58N 35°36' E 140°06'0 0.0
2018-Apr-17 14:27N 35°36' E 140°06'0 0.0
2018-Apr-17 14:00N 35°36' E 140°06'0 0.0
2018-Apr-17 13:30N 35°36' E 140°06'0 0.0
2018-Apr-17 13:00N 35°36' E 140°06'0 0.0
2018-Apr-17 12:30N 35°36' E 140°06'0 0.0
2018-Apr-17 12:00N 35°36' E 140°06'0 0.0
2018-Apr-17 11:30N 35°36' E 140°06'0 0.0
2018-Apr-17 11:00N 35°36' E 140°06'0 0.0
2018-Apr-17 10:30N 35°36' E 140°06'0 0.0
2018-Apr-17 10:00N 35°36' E 140°06'0 0.0
2018-Apr-17 09:30N 35°36' E 140°06'0 0.0
2018-Apr-17 09:00N 35°36' E 140°06'0 0.0
2018-Apr-17 08:30N 35°36' E 140°06'0 0.0
2018-Apr-17 08:00N 35°36' E 140°06'0 0.0
2018-Apr-17 07:30N 35°36' E 140°06'0 0.0
2018-Apr-17 07:00N 35°36' E 140°06'2 4.1
2018-Apr-17 06:30N 35°35' E 140°04'611.7
2018-Apr-17 05:57N 35°32' E 139°57'611.3
2018-Apr-17 05:27N 35°28' E 139°52'511.5
2018-Apr-17 04:59N 35°23' E 139°51'2 3.3
2018-Apr-17 04:22N 35°22' E 139°53'0 0.0
2018-Apr-17 03:55N 35°22' E 139°53'0 0.0
2018-Apr-17 03:28N 35°22' E 139°53'0 0.0
2018-Apr-17 02:55N 35°22' E 139°53'0 0.0
2018-Apr-17 02:28N 35°22' E 139°53'0 0.0
2018-Apr-17 01:55N 35°22' E 139°53'0 0.0
2018-Apr-17 01:28N 35°22' E 139°53'0 0.0
2018-Apr-17 00:55N 35°22' E 139°53'0 0.0
2018-Apr-17 00:25N 35°22' E 139°53'0 0.0
2018-Apr-16 23:58N 35°22' E 139°53'0 0.2
2018-Apr-16 23:27N 35°22' E 139°53'3 6.0
2018-Apr-16 22:59N 35°23' E 139°50'3 5.7
2018-Apr-16 22:29N 35°24' E 139°47'4 7.3
2018-Apr-16 21:59N 35°21' E 139°45'3 7.5
2018-Apr-16 21:30N 35°18' E 139°45'5 9.4
2018-Apr-16 21:01N 35°13' E 139°47'5 9.6
2018-Apr-16 20:30N 35°08' E 139°45'5 9.3
2018-Apr-16 20:00N 35°05' E 139°41'5 9.9
2018-Apr-16 19:30N 35°02' E 139°36'245 8.9
2018-Apr-15 16:02N 34°05' E 134°48'163 4.4
2018-Apr-14 03:17N 33°16' E 131°41'0 0.2
2018-Apr-14 02:59N 33°16' E 131°41'2 1.0
2018-Apr-14 01:26N 33°18' E 131°41'1 2.2
2018-Apr-14 00:58N 33°18' E 131°41'2 4.0
2018-Apr-14 00:25N 33°19' E 131°44'9 9.8
2018-Apr-13 23:32N 33°25' E 131°52'110.9
2018-Apr-13 23:28N 33°25' E 131°52'4911.4
2018-Apr-13 19:09N 33°56' E 132°39'311.9
2018-Apr-13 18:56N 33°57' E 132°42'10311.2
2018-Apr-13 09:43N 34°31' E 134°39'412.8
2018-Apr-13 09:22N 34°33' E 134°44'613.2
2018-Apr-13 08:56N 34°35' E 134°51'613.9
2018-Apr-13 08:30N 34°37' E 134°57'612.4
2018-Apr-13 08:00N 34°36' E 135°05'  

Dump ship's entire track history